Time;durP1;ratioP1;P1;durP2;ratioP2;P2;SDS_P1;SDS_P2;PMS_P1;PMS_P2;Temp;Humidity;BMP_temperature;BMP_pressure;BME280_temperature;BME280_humidity;BME280_pressure;Samples;Min_cycle;Max_cycle;Signal;HPM_P1;HPM_P2
2022/04/19 00:00:12;;;;;;;3.12;1.50;;;10.90;37.70;;;;;;2590615;53;20963;-85
2022/04/19 00:02:38;;;;;;;2.95;1.58;;;10.80;37.70;;;;;;2345313;54;21302;-84
2022/04/19 00:05:05;;;;;;;2.33;1.20;;;10.80;37.60;;;;;;2345763;54;20908;-85
2022/04/19 00:07:32;;;;;;;3.00;1.12;;;10.80;37.60;;;;;;2329229;53;21111;-86
2022/04/19 00:09:59;;;;;;;3.70;1.52;;;10.80;37.60;;;;;;2339464;53;20963;-85
2022/04/19 00:12:25;;;;;;;3.40;1.58;;;10.70;37.50;;;;;;2589504;53;21027;-84
2022/04/19 00:14:52;;;;;;;4.15;1.40;;;10.70;37.60;;;;;;2590805;53;20939;-86
2022/04/19 00:17:19;;;;;;;3.47;1.50;;;10.70;37.70;;;;;;2345932;54;21019;-85
2022/04/19 00:19:45;;;;;;;2.92;1.35;;;10.60;37.60;;;;;;2590891;53;20941;-85
2022/04/19 00:22:12;;;;;;;2.97;1.27;;;10.60;37.60;;;;;;2590400;53;20940;-85
2022/04/19 00:24:39;;;;;;;3.05;1.30;;;10.50;37.60;;;;;;2590832;53;21971;-84
2022/04/19 00:27:06;;;;;;;2.70;1.35;;;10.50;37.70;;;;;;2346106;54;20991;-85
2022/04/19 00:29:32;;;;;;;3.25;1.45;;;10.40;37.70;;;;;;2591030;53;20900;-85
2022/04/19 00:31:58;;;;;;;3.95;1.40;;;10.40;37.80;;;;;;2345041;54;22028;-84
2022/04/19 00:34:24;;;;;;;2.80;1.40;;;10.30;37.80;;;;;;2590532;53;20968;-85
2022/04/19 00:36:51;;;;;;;2.70;1.37;;;10.30;37.90;;;;;;2590309;53;21939;-84
2022/04/19 00:39:17;;;;;;;2.47;1.10;;;10.20;38.00;;;;;;2561318;52;21037;-85
2022/04/19 00:41:43;;;;;;;3.65;1.70;;;10.20;37.90;;;;;;2345312;54;21420;-85
2022/04/19 00:44:10;;;;;;;3.17;1.33;;;10.10;37.90;;;;;;2583315;53;20989;-85
2022/04/19 00:46:36;;;;;;;2.25;1.15;;;10.10;38.00;;;;;;2345373;53;21011;-85
2022/04/19 00:49:03;;;;;;;2.92;1.37;;;10.10;38.10;;;;;;2346236;54;21366;-84
2022/04/19 00:51:29;;;;;;;3.22;1.37;;;10.00;38.10;;;;;;2345627;54;20892;-85
2022/04/19 00:53:55;;;;;;;2.65;1.33;;;10.00;38.20;;;;;;2341260;53;21978;-84
2022/04/19 00:56:21;;;;;;;3.10;1.40;;;9.90;39.10;;;;;;2331304;53;20923;-85
2022/04/19 00:58:48;;;;;;;3.03;1.23;;;9.90;39.20;;;;;;2343686;53;20932;-86
2022/04/19 01:01:15;;;;;;;3.00;1.50;;;9.80;39.20;;;;;;2570738;52;20972;-84
2022/04/19 01:03:42;;;;;;;3.60;1.77;;;9.80;39.20;;;;;;2591132;53;20980;-85
2022/04/19 01:06:08;;;;;;;3.03;1.40;;;9.70;39.30;;;;;;2591142;53;21066;-85
2022/04/19 01:08:35;;;;;;;3.42;1.70;;;9.70;39.40;;;;;;2590864;53;21078;-85
2022/04/19 01:13:45;;;;;;;4.97;1.45;;;9.60;39.50;;;;;;2584709;53;22242;-86
2022/04/19 01:16:12;;;;;;;3.22;1.62;;;9.60;39.50;;;;;;2543392;53;20959;-85
2022/04/19 01:18:39;;;;;;;3.10;1.65;;;9.50;39.50;;;;;;2346300;54;21373;-85
2022/04/19 01:21:06;;;;;;;2.70;1.42;;;9.50;39.70;;;;;;2590997;53;22104;-85
2022/04/19 01:23:32;;;;;;;3.28;1.73;;;9.50;39.70;;;;;;2590630;53;20935;-84
2022/04/19 01:25:58;;;;;;;3.00;1.60;;;9.40;39.70;;;;;;2590998;53;20943;-85
2022/04/19 01:28:24;;;;;;;3.33;1.52;;;9.40;39.80;;;;;;2590519;53;21023;-86
2022/04/19 01:30:52;;;;;;;3.08;1.65;;;9.40;39.90;;;;;;2590372;53;21489;-84
2022/04/19 01:33:20;;;;;;;3.10;1.60;;;9.30;39.90;;;;;;2589202;53;22041;-85
2022/04/19 01:35:46;;;;;;;3.92;1.67;;;9.30;40.10;;;;;;2590607;53;21015;-84
2022/04/19 01:38:13;;;;;;;3.03;1.23;;;9.30;40.10;;;;;;2344836;54;20928;-84
2022/04/19 01:40:39;;;;;;;2.60;1.33;;;9.20;40.10;;;;;;2343830;54;20948;-84
2022/04/19 01:43:05;;;;;;;2.78;1.40;;;9.20;40.10;;;;;;2568277;53;22047;-84
2022/04/19 01:45:33;;;;;;;3.72;1.50;;;9.20;40.30;;;;;;2337517;53;21036;-84
2022/04/19 01:48:00;;;;;;;3.28;1.60;;;9.20;40.30;;;;;;2589758;53;20912;-85
2022/04/19 01:50:27;;;;;;;3.17;1.23;;;9.20;40.40;;;;;;2326653;53;21011;-84
2022/04/19 01:52:56;;;;;;;2.75;1.25;;;9.10;40.30;;;;;;2345636;54;20944;-84
2022/04/19 01:55:22;;;;;;;2.70;1.40;;;9.10;40.30;;;;;;2570550;52;20947;-84
2022/04/19 01:57:49;;;;;;;3.00;1.40;;;8.90;40.20;;;;;;2582454;52;20940;-84
2022/04/19 02:00:16;;;;;;;2.30;1.12;;;9.00;40.30;;;;;;2590102;53;21016;-83
2022/04/19 02:02:44;;;;;;;2.17;1.20;;;9.00;40.30;;;;;;2344982;54;20948;-83
2022/04/19 02:05:10;;;;;;;2.35;1.10;;;9.00;40.40;;;;;;2589936;53;20925;-83
2022/04/19 02:07:52;;;;;;;3.00;1.40;;;8.90;40.40;;;;;;2344704;54;20879;-84
2022/04/19 02:10:19;;;;;;;3.03;1.30;;;8.90;40.80;;;;;;2590318;53;20908;-84
2022/04/19 02:12:49;;;;;;;2.55;1.23;;;8.90;40.50;;;;;;2345368;54;20958;-84
2022/04/19 02:15:15;;;;;;;3.08;1.30;;;8.80;40.50;;;;;;2589662;53;21874;-84
2022/04/19 02:17:45;;;;;;;4.47;1.17;;;8.80;40.70;;;;;;2324809;53;20998;-85
2022/04/19 02:20:13;;;;;;;2.75;1.37;;;8.80;40.80;;;;;;2571105;53;22328;-85
2022/04/19 02:22:39;;;;;;;2.75;1.05;;;8.70;40.70;;;;;;2337825;53;20975;-85
2022/04/19 02:25:07;;;;;;;2.60;1.20;;;8.70;40.70;;;;;;2345521;54;20872;-85
2022/04/19 02:27:33;;;;;;;2.25;1.08;;;8.70;40.90;;;;;;2589845;53;20980;-85
2022/04/19 02:30:04;;;;;;;2.90;1.20;;;8.70;40.90;;;;;;2590558;53;20907;-85
2022/04/19 02:32:31;;;;;;;2.75;1.27;;;8.70;41.00;;;;;;2591087;53;21016;-85
2022/04/19 02:34:58;;;;;;;2.92;1.50;;;8.60;41.00;;;;;;2346544;54;22265;-86
2022/04/19 02:37:24;;;;;;;3.08;1.42;;;8.60;41.00;;;;;;2590050;53;21059;-85
2022/04/19 02:39:50;;;;;;;3.30;1.30;;;8.60;41.00;;;;;;2590968;53;20979;-84
2022/04/19 02:42:17;;;;;;;2.58;1.30;;;8.50;41.00;;;;;;2346644;54;20968;-86
2022/04/19 02:44:43;;;;;;;3.25;1.30;;;8.50;41.00;;;;;;2591301;53;20904;-85
2022/04/19 02:47:10;;;;;;;2.17;1.00;;;8.50;41.10;;;;;;2346389;54;21215;-85
2022/04/19 02:49:39;;;;;;;3.12;1.35;;;8.50;41.10;;;;;;2346657;54;20932;-85
2022/04/19 02:52:05;;;;;;;2.70;1.15;;;8.40;41.10;;;;;;2345769;54;20928;-84
2022/04/19 02:54:32;;;;;;;2.95;1.20;;;8.40;41.20;;;;;;2590812;53;20916;-85
2022/04/19 02:56:58;;;;;;;3.10;1.02;;;8.40;41.30;;;;;;2590982;53;20924;-85
2022/04/19 02:59:25;;;;;;;2.53;1.30;;;8.40;41.40;;;;;;2346348;54;21905;-85
2022/04/19 03:01:51;;;;;;;3.25;1.37;;;8.40;42.10;;;;;;2591255;53;21828;-84
2022/04/19 03:04:20;;;;;;;2.30;1.00;;;8.30;41.50;;;;;;2346589;54;20940;-85
2022/04/19 03:06:49;;;;;;;2.85;1.45;;;8.30;41.50;;;;;;2591726;53;21023;-85
2022/04/19 03:09:16;;;;;;;2.30;1.00;;;8.30;41.60;;;;;;2327155;53;22043;-85
2022/04/19 03:11:42;;;;;;;3.53;1.20;;;8.30;41.60;;;;;;2342062;53;21019;-86
2022/04/19 03:14:10;;;;;;;2.30;1.02;;;8.20;41.50;;;;;;2571699;52;20940;-84
2022/04/19 03:16:36;;;;;;;2.20;0.90;;;8.20;41.50;;;;;;2344812;54;21032;-84
2022/04/19 03:19:02;;;;;;;2.70;1.20;;;8.20;41.60;;;;;;2589500;53;20912;-84
2022/04/19 03:21:28;;;;;;;3.03;1.30;;;8.20;41.60;;;;;;2344376;54;20915;-83
2022/04/19 03:29:24;;;;;;;2.62;1.15;;;8.10;41.60;;;;;;2584908;53;20940;-84
2022/04/19 03:31:50;;;;;;;2.35;1.12;;;8.10;41.60;;;;;;2565440;52;20944;-83
2022/04/19 03:34:18;;;;;;;2.67;1.17;;;8.10;41.70;;;;;;2588668;53;21377;-84
2022/04/19 03:36:46;;;;;;;3.17;1.15;;;8.10;41.80;;;;;;2589668;53;22034;-84
2022/04/19 03:39:12;;;;;;;2.03;1.00;;;8.10;41.80;;;;;;2578037;52;22035;-84
2022/04/19 03:41:38;;;;;;;2.65;1.08;;;8.00;41.80;;;;;;2345287;53;20963;-85
2022/04/19 03:44:07;;;;;;;2.92;1.40;;;8.00;41.80;;;;;;2591569;53;20923;-84
2022/04/19 03:47:07;;;;;;;2.45;1.10;;;8.00;41.90;;;;;;2591638;53;20952;-84
2022/04/19 03:49:34;;;;;;;4.22;1.27;;;7.90;41.90;;;;;;2327024;55;20972;-85
2022/04/19 03:52:01;;;;;;;2.60;1.00;;;7.90;41.90;;;;;;2563608;52;21934;-85
2022/04/19 03:54:27;;;;;;;2.60;1.23;;;7.90;41.90;;;;;;2591593;53;21031;-85
2022/04/19 03:56:54;;;;;;;2.70;1.20;;;7.90;42.00;;;;;;2571596;52;21012;-84
2022/04/19 03:59:22;;;;;;;2.83;1.00;;;7.80;42.00;;;;;;2580563;52;20956;-85
2022/04/19 04:01:49;;;;;;;2.70;1.20;;;7.80;42.10;;;;;;2590428;52;21550;-84
2022/04/19 04:04:16;;;;;;;2.30;0.93;;;7.80;42.20;;;;;;2345815;54;20932;-85
2022/04/19 04:06:42;;;;;;;2.85;1.20;;;7.70;42.10;;;;;;2591258;53;21949;-85
2022/04/19 04:09:09;;;;;;;2.25;1.02;;;7.70;42.10;;;;;;2591778;53;20928;-84
2022/04/19 04:11:35;;;;;;;2.33;1.02;;;7.70;42.20;;;;;;2591081;53;21070;-84
2022/04/19 04:14:02;;;;;;;2.60;1.20;;;7.70;42.30;;;;;;2586559;53;21256;-84
2022/04/19 04:16:28;;;;;;;1.80;0.98;;;7.80;42.40;;;;;;2567895;52;21038;-85
2022/04/19 04:18:55;;;;;;;3.30;1.30;;;7.60;42.30;;;;;;2590980;53;21843;-84
2022/04/19 04:21:21;;;;;;;2.83;1.17;;;7.60;42.40;;;;;;2591341;53;20923;-85
2022/04/19 04:23:47;;;;;;;2.62;1.10;;;7.60;42.50;;;;;;2346047;54;20952;-85
2022/04/19 04:26:14;;;;;;;2.08;1.02;;;7.60;42.50;;;;;;2346196;54;21039;-85
2022/04/19 04:28:40;;;;;;;2.78;1.00;;;7.70;42.70;;;;;;2591232;53;20967;-85
2022/04/19 04:31:06;;;;;;;3.08;1.25;;;7.60;43.10;;;;;;2591238;53;20924;-85
2022/04/19 04:33:33;;;;;;;1.98;0.85;;;7.60;42.60;;;;;;2591274;53;20908;-85
2022/04/19 04:35:59;;;;;;;2.15;1.00;;;7.60;42.60;;;;;;2346643;54;20979;-85
2022/04/19 04:38:25;;;;;;;2.90;1.20;;;7.60;42.70;;;;;;2591662;53;20943;-85
2022/04/19 04:40:52;;;;;;;2.92;1.10;;;7.50;42.60;;;;;;2591812;53;20928;-84
2022/04/19 04:43:18;;;;;;;2.85;1.02;;;7.50;42.60;;;;;;2592093;53;20920;-84
2022/04/19 04:45:44;;;;;;;2.08;1.00;;;7.50;42.70;;;;;;2563371;52;20928;-85
2022/04/19 04:50:55;;;;;;;3.00;1.20;;;7.40;42.70;;;;;;2563578;52;21078;-84
2022/04/19 04:53:22;;;;;;;2.78;1.02;;;7.30;42.70;;;;;;2591215;53;20896;-84
2022/04/19 04:55:48;;;;;;;2.62;1.10;;;7.40;42.80;;;;;;2591059;53;21883;-84
2022/04/19 04:58:14;;;;;;;2.65;1.25;;;7.40;42.90;;;;;;2345831;54;20987;-84
2022/04/19 05:00:41;;;;;;;3.08;1.30;;;7.40;42.90;;;;;;2345987;54;20975;-85
2022/04/19 05:03:07;;;;;;;3.75;1.27;;;7.40;43.00;;;;;;2591675;53;20901;-85
2022/04/19 05:05:36;;;;;;;2.80;1.25;;;7.40;43.10;;;;;;2591628;53;20975;-84
2022/04/19 05:08:06;;;;;;;2.75;1.37;;;7.40;43.10;;;;;;2591772;53;21083;-84
2022/04/19 05:10:32;;;;;;;2.95;1.55;;;7.40;43.20;;;;;;2345236;54;21497;-84
2022/04/19 05:12:59;;;;;;;2.65;1.27;;;7.40;43.20;;;;;;2577358;52;20965;-84
2022/04/19 05:15:25;;;;;;;2.67;1.30;;;7.40;43.30;;;;;;2587889;52;20964;-84
2022/04/19 05:17:52;;;;;;;2.83;1.33;;;7.40;43.30;;;;;;2564761;52;20949;-84
2022/04/19 05:20:18;;;;;;;3.08;1.33;;;7.40;43.20;;;;;;2590244;53;20948;-84
2022/04/19 05:22:44;;;;;;;3.50;1.35;;;7.40;43.30;;;;;;2333763;53;21988;-84
2022/04/19 05:25:10;;;;;;;4.62;1.20;;;7.40;43.40;;;;;;2583274;52;20996;-84
2022/04/19 05:27:37;;;;;;;2.65;1.23;;;7.40;43.50;;;;;;2345484;54;20896;-84
2022/04/19 05:30:04;;;;;;;2.33;1.05;;;7.40;43.40;;;;;;2586620;53;20943;-85
2022/04/19 05:32:31;;;;;;;4.35;1.20;;;7.40;43.60;;;;;;2564452;52;20968;-86
2022/04/19 05:34:57;;;;;;;5.82;1.33;;;7.40;43.60;;;;;;2586941;53;21043;-83
2022/04/19 05:37:23;;;;;;;3.40;1.20;;;7.50;43.70;;;;;;2323723;53;20956;-84
2022/04/19 05:39:49;;;;;;;3.42;1.52;;;7.50;43.80;;;;;;2568352;53;20984;-84
2022/04/19 05:42:16;;;;;;;3.97;1.40;;;7.50;43.80;;;;;;2337364;53;21580;-85
2022/04/19 05:44:43;;;;;;;3.55;1.60;;;7.50;43.90;;;;;;2566078;52;20928;-84
2022/04/19 05:47:10;;;;;;;3.85;1.98;;;7.50;43.90;;;;;;2575886;52;20979;-85
2022/04/19 05:49:37;;;;;;;5.50;2.87;;;7.60;44.10;;;;;;2338114;53;21442;-85
2022/04/19 05:52:04;;;;;;;6.05;2.83;;;7.60;44.20;;;;;;2590119;53;21023;-84
2022/04/19 05:54:30;;;;;;;5.87;2.87;;;7.70;44.40;;;;;;2323255;53;20939;-84
2022/04/19 05:56:57;;;;;;;5.05;2.40;;;7.70;44.50;;;;;;2346203;54;21271;-84
2022/04/19 05:59:23;;;;;;;4.47;2.53;;;7.80;44.60;;;;;;2589951;53;20952;-84
2022/04/19 06:04:54;;;;;;;5.05;2.22;;;7.90;44.90;;;;;;2344807;53;22105;-84
2022/04/19 06:07:20;;;;;;;3.60;1.85;;;8.00;44.90;;;;;;2591288;53;20920;-85
2022/04/19 06:09:48;;;;;;;6.00;2.30;;;8.10;45.00;;;;;;2345885;54;20900;-85
2022/04/19 06:12:14;;;;;;;4.12;2.33;;;8.10;45.10;;;;;;2569838;52;21794;-84
2022/04/19 06:14:41;;;;;;;4.18;1.83;;;8.30;45.30;;;;;;2344811;53;20976;-84
2022/04/19 06:17:11;;;;;;;6.45;1.87;;;8.40;45.40;;;;;;2345415;54;20923;-85
2022/04/19 06:19:38;;;;;;;4.50;2.00;;;8.40;45.40;;;;;;2344900;54;20932;-85
2022/04/19 06:22:04;;;;;;;3.62;1.90;;;8.60;45.50;;;;;;2561333;52;22006;-85
2022/04/19 06:24:30;;;;;;;3.78;1.87;;;8.70;45.60;;;;;;2591070;53;20923;-85
2022/04/19 06:26:57;;;;;;;5.43;2.10;;;8.80;45.70;;;;;;2590230;53;20940;-84
2022/04/19 06:29:26;;;;;;;4.35;1.55;;;8.90;45.70;;;;;;2590270;53;21027;-84
2022/04/19 06:31:52;;;;;;;4.30;1.80;;;9.00;45.70;;;;;;2345116;54;21573;-85
2022/04/19 06:34:19;;;;;;;5.37;2.00;;;9.10;45.80;;;;;;2345020;54;20975;-84
2022/04/19 06:36:45;;;;;;;3.15;1.42;;;9.20;45.80;;;;;;2345478;54;21091;-85
2022/04/19 06:39:12;;;;;;;4.43;1.75;;;9.40;45.90;;;;;;2590888;53;20952;-85
2022/04/19 06:41:38;;;;;;;3.17;1.60;;;9.50;45.90;;;;;;2590715;53;20971;-85
2022/04/19 06:44:06;;;;;;;3.70;1.85;;;9.60;45.90;;;;;;2326599;53;20947;-85
2022/04/19 06:46:32;;;;;;;3.03;1.52;;;9.70;45.90;;;;;;2590987;53;22131;-85
2022/04/19 06:48:58;;;;;;;3.78;1.75;;;9.90;46.10;;;;;;2325725;53;20994;-85
2022/04/19 06:51:30;;;;;;;3.72;1.73;;;10.10;45.60;;;;;;2590988;53;20932;-85
2022/04/19 06:53:58;;;;;;;4.18;1.70;;;10.30;46.40;;;;;;2590479;53;20971;-86
2022/04/19 06:56:24;;;;;;;3.47;2.05;;;10.60;47.20;;;;;;2591290;53;21052;-85
2022/04/19 06:58:51;;;;;;;3.70;1.85;;;11.00;48.20;;;;;;2591362;53;22030;-85
2022/04/19 07:01:17;;;;;;;3.55;2.00;;;11.60;49.40;;;;;;2590682;53;20931;-84
2022/04/19 07:03:44;;;;;;;3.30;1.70;;;12.10;49.60;;;;;;2583310;52;20921;-85
2022/04/19 07:06:10;;;;;;;3.97;1.87;;;12.70;50.10;;;;;;2590215;52;21050;-85
2022/04/19 07:08:36;;;;;;;3.70;1.80;;;13.40;50.50;;;;;;2345097;54;20987;-85
2022/04/19 07:11:03;;;;;;;3.60;2.00;;;14.10;50.70;;;;;;2589623;53;21046;-86
2022/04/19 07:13:30;;;;;;;3.50;1.83;;;14.90;51.00;;;;;;2569481;52;21027;-86
2022/04/19 07:15:57;;;;;;;4.62;1.92;;;15.40;51.00;;;;;;2580062;52;20923;-82
2022/04/19 07:18:24;;;;;;;3.37;1.42;;;16.20;51.10;;;;;;2343453;54;20912;-83
2022/04/19 07:26:38;;;;;;;2.75;1.50;;;18.30;49.60;;;;;;2561683;52;20975;-83
2022/04/19 07:29:11;;;;;;;2.75;1.30;;;19.00;49.30;;;;;;2581897;52;20928;-81
2022/04/19 07:31:51;;;;;;;3.40;1.73;;;19.60;48.40;;;;;;2588621;53;20996;-82
2022/04/19 07:34:17;;;;;;;3.30;1.60;;;20.20;47.10;;;;;;2584961;53;20983;-81
2022/04/19 07:36:43;;;;;;;3.17;1.58;;;20.70;46.90;;;;;;2342726;54;21488;-81
2022/04/19 07:39:10;;;;;;;3.10;1.40;;;21.00;45.80;;;;;;2583515;53;21043;-80
2022/04/19 07:41:39;;;;;;;3.95;1.73;;;21.40;45.00;;;;;;2566756;52;20940;-80
2022/04/19 07:44:08;;;;;;;3.70;1.95;;;21.60;44.00;;;;;;2559874;52;20987;-80
2022/04/19 07:46:35;;;;;;;4.30;1.98;;;21.70;42.90;;;;;;2337674;53;21065;-80
2022/04/19 07:49:02;;;;;;;3.50;1.73;;;21.80;42.00;;;;;;2329844;53;20976;-80
2022/04/19 07:51:28;;;;;;;5.30;1.87;;;21.80;41.10;;;;;;2588367;53;20932;-82
2022/04/19 07:53:56;;;;;;;5.07;2.00;;;21.70;40.10;;;;;;2588708;53;20963;-81
2022/04/19 07:56:22;;;;;;;3.28;1.60;;;21.50;39.40;;;;;;2588461;53;20964;-81
2022/04/19 07:58:49;;;;;;;2.95;1.60;;;21.30;39.00;;;;;;2343373;54;21042;-81
2022/04/19 08:01:16;;;;;;;3.62;1.65;;;21.10;38.90;;;;;;2588410;53;20987;-81
2022/04/19 08:03:43;;;;;;;3.45;1.60;;;20.90;38.70;;;;;;2589254;53;20932;-82
2022/04/19 08:06:09;;;;;;;3.72;1.90;;;20.70;38.50;;;;;;2589094;53;21358;-80
2022/04/19 08:08:36;;;;;;;3.25;1.58;;;20.60;38.60;;;;;;2589536;53;20999;-81
2022/04/19 08:11:03;;;;;;;3.30;1.45;;;20.40;38.70;;;;;;2343954;54;20955;-82
2022/04/19 08:13:29;;;;;;;2.92;1.55;;;20.30;38.90;;;;;;2589372;53;22016;-81
2022/04/19 08:15:56;;;;;;;3.60;1.60;;;20.30;39.10;;;;;;2587930;53;21012;-81
2022/04/19 08:18:22;;;;;;;4.07;1.58;;;20.30;39.40;;;;;;2590474;53;20916;-81
2022/04/19 08:20:49;;;;;;;3.25;1.50;;;20.40;39.80;;;;;;2589439;53;21902;-83
2022/04/19 08:23:15;;;;;;;2.85;1.40;;;20.50;40.10;;;;;;2592262;53;21015;-82
2022/04/19 08:25:43;;;;;;;2.95;1.30;;;20.70;40.30;;;;;;2592911;53;20920;-81
2022/04/19 08:28:09;;;;;;;3.10;1.45;;;20.90;40.20;;;;;;2583067;52;21462;-81
2022/04/19 08:30:36;;;;;;;2.40;1.27;;;21.10;39.90;;;;;;2592397;52;21043;-81
2022/04/19 08:33:02;;;;;;;3.53;1.60;;;21.30;39.90;;;;;;2347431;54;21094;-82
2022/04/19 08:35:29;;;;;;;3.35;1.50;;;21.40;39.80;;;;;;2593115;53;21083;-83
2022/04/19 08:37:56;;;;;;;3.78;1.67;;;21.60;39.80;;;;;;2344451;54;21054;-82
2022/04/19 08:40:25;;;;;;;2.78;1.35;;;21.70;39.30;;;;;;2589110;53;20948;-82
2022/04/19 08:42:57;;;;;;;2.87;1.45;;;21.90;39.00;;;;;;2345050;54;20936;-80
2022/04/19 08:45:24;;;;;;;4.90;1.50;;;21.90;38.60;;;;;;2590908;53;20975;-81
2022/04/19 08:47:50;;;;;;;3.00;1.42;;;22.00;38.30;;;;;;2345734;54;21074;-81
2022/04/19 08:50:19;;;;;;;2.53;1.30;;;22.10;37.90;;;;;;2585161;53;20947;-81
2022/04/19 08:52:46;;;;;;;4.37;1.67;;;22.00;37.40;;;;;;2565351;52;20960;-81
2022/04/19 08:57:58;;;;;;;4.53;1.40;;;21.90;37.10;;;;;;2339183;53;21031;-82
2022/04/19 09:00:25;;;;;;;4.20;1.55;;;21.90;36.80;;;;;;2577626;52;20919;-82
2022/04/19 09:02:52;;;;;;;2.62;1.40;;;21.90;36.70;;;;;;2573252;52;21094;-82
2022/04/19 09:05:26;;;;;;;2.70;1.40;;;21.90;36.90;;;;;;2589902;53;20912;-82
2022/04/19 09:07:57;;;;;;;5.37;1.90;;;22.00;37.00;;;;;;2587996;53;21059;-81
2022/04/19 09:10:33;;;;;;;2.78;1.50;;;22.20;37.20;;;;;;2590721;53;21034;-82
2022/04/19 09:13:07;;;;;;;2.90;1.50;;;22.30;36.80;;;;;;2590048;53;20994;-81
2022/04/19 09:15:44;;;;;;;2.70;1.45;;;22.30;36.60;;;;;;2589772;53;20936;-82
2022/04/19 09:18:30;;;;;;;3.28;1.58;;;22.40;36.40;;;;;;2590198;53;20975;-81
2022/04/19 09:20:58;;;;;;;2.97;1.27;;;22.40;36.50;;;;;;2589628;53;20999;-82
2022/04/19 09:23:25;;;;;;;3.92;1.52;;;22.50;36.70;;;;;;2588670;53;21502;-81
2022/04/19 09:25:56;;;;;;;4.28;1.73;;;22.50;36.70;;;;;;2344552;54;21020;-81
2022/04/19 09:28:22;;;;;;;3.50;1.62;;;22.60;36.80;;;;;;2590347;53;20940;-82
2022/04/19 09:30:56;;;;;;;2.65;1.37;;;22.70;36.80;;;;;;2344998;54;21390;-81
2022/04/19 09:33:24;;;;;;;2.92;1.40;;;22.80;36.40;;;;;;2589211;53;21454;-80
2022/04/19 09:35:57;;;;;;;4.70;1.42;;;22.80;36.30;;;;;;2588930;53;20928;-82
2022/04/19 09:38:41;;;;;;;2.92;1.70;;;22.90;35.90;;;;;;2589591;53;20991;-81
2022/04/19 09:41:13;;;;;;;3.90;1.48;;;22.90;35.50;;;;;;2589852;53;20952;-82
2022/04/19 09:44:08;;;;;;;3.10;1.62;;;22.90;35.20;;;;;;2578743;52;21554;-81
2022/04/19 09:46:36;;;;;;;2.90;1.70;;;22.90;34.80;;;;;;2314628;54;20996;-82
2022/04/19 09:49:02;;;;;;;2.60;1.20;;;22.90;35.30;;;;;;2589767;53;20968;-81
2022/04/19 09:51:33;;;;;;;4.57;1.90;;;22.90;35.30;;;;;;2560892;52;21074;-82
2022/04/19 09:53:59;;;;;;;3.75;1.45;;;22.90;34.90;;;;;;2561880;52;20938;-81
2022/04/19 09:56:34;;;;;;;3.33;1.60;;;22.90;34.80;;;;;;2586079;52;20943;-81
2022/04/19 09:59:10;;;;;;;2.60;1.25;;;22.90;34.70;;;;;;2561451;52;20967;-81
2022/04/19 10:09:51;;;;;;;3.30;1.55;;;23.00;34.80;;;;;;2571401;52;20892;-82
2022/04/19 10:12:17;;;;;;;3.58;1.20;;;23.10;34.80;;;;;;2587395;53;20987;-82
2022/04/19 10:14:46;;;;;;;4.15;1.90;;;23.20;34.70;;;;;;2343843;54;20904;-81
2022/04/19 10:17:13;;;;;;;4.40;1.77;;;23.20;34.70;;;;;;2331286;53;22064;-82
2022/04/19 10:19:39;;;;;;;2.50;1.10;;;23.30;34.90;;;;;;2583767;52;20931;-81
2022/04/19 10:22:06;;;;;;;3.10;1.10;;;23.40;35.10;;;;;;2570541;52;20975;-81
2022/04/19 10:24:52;;;;;;;2.80;1.20;;;23.50;35.20;;;;;;2582220;53;20940;-81
2022/04/19 10:27:31;;;;;;;3.62;1.25;;;23.70;34.70;;;;;;2343996;54;22019;-82
2022/04/19 10:29:57;;;;;;;3.12;1.58;;;23.90;34.90;;;;;;2343804;54;20979;-81
2022/04/19 10:32:33;;;;;;;4.97;1.70;;;24.00;34.70;;;;;;2589474;53;20928;-81
2022/04/19 10:35:03;;;;;;;3.20;1.23;;;24.10;34.30;;;;;;2562404;52;21038;-81
2022/04/19 10:37:30;;;;;;;2.83;1.27;;;24.10;34.20;;;;;;2347602;54;20979;-82
2022/04/19 10:40:06;;;;;;;3.62;1.40;;;24.20;33.90;;;;;;2590098;53;21346;-81
2022/04/19 10:42:40;;;;;;;5.75;1.62;;;24.20;33.50;;;;;;2590285;53;20924;-82
2022/04/19 10:45:40;;;;;;;3.05;1.30;;;24.20;33.20;;;;;;2590532;53;22014;-82
2022/04/19 10:48:07;;;;;;;2.70;1.00;;;24.20;32.90;;;;;;2589615;53;20999;-81
2022/04/19 10:50:34;;;;;;;5.37;1.37;;;24.20;33.10;;;;;;2589485;53;20942;-81
2022/04/19 10:53:04;;;;;;;2.78;1.10;;;24.10;32.80;;;;;;2343991;54;20936;-82
2022/04/19 10:55:31;;;;;;;2.22;0.98;;;24.10;32.70;;;;;;2344325;54;20983;-82
2022/04/19 10:58:37;;;;;;;2.85;1.15;;;24.20;32.40;;;;;;2589777;53;20927;-82
2022/04/19 11:01:05;;;;;;;2.47;1.00;;;24.20;31.70;;;;;;2589631;53;20959;-81
2022/04/19 11:03:49;;;;;;;3.55;1.10;;;24.10;31.80;;;;;;2589615;53;20939;-81
2022/04/19 11:06:36;;;;;;;2.60;1.10;;;24.10;31.40;;;;;;2589433;53;20967;-84
2022/04/19 11:09:26;;;;;;;2.53;1.10;;;24.10;31.60;;;;;;2593859;53;21918;-86
2022/04/19 11:12:08;;;;;;;3.30;1.40;;;24.00;31.20;;;;;;2348036;54;21392;-88
2022/04/19 11:14:36;;;;;;;2.17;1.00;;;24.00;31.90;;;;;;2348669;54;22405;-87
2022/04/19 11:17:22;;;;;;;2.22;0.90;;;24.00;31.30;;;;;;2348195;54;20979;-87
2022/04/19 11:20:23;;;;;;;3.60;1.05;;;24.00;31.00;;;;;;2577859;52;20991;-88
2022/04/19 11:22:53;;;;;;;2.60;1.08;;;24.00;31.20;;;;;;2582874;52;20912;-86
2022/04/19 11:25:42;;;;;;;3.12;0.98;;;24.10;31.50;;;;;;2572379;52;20932;-88
2022/04/19 11:28:26;;;;;;;2.53;1.00;;;24.10;30.90;;;;;;2595226;53;20935;-88
2022/04/19 11:31:24;;;;;;;4.28;1.70;;;24.10;30.90;;;;;;2589734;53;20931;-89
2022/04/19 11:33:51;;;;;;;2.35;1.00;;;24.20;30.60;;;;;;2580558;52;21306;-87
2022/04/19 11:36:19;;;;;;;5.32;1.80;;;24.20;30.70;;;;;;2330073;53;24874;-87
2022/04/19 11:38:47;;;;;;;2.85;1.17;;;24.20;30.70;;;;;;2595307;53;20972;-86
2022/04/19 11:49:55;;;;;;;2.05;0.70;;;24.30;30.80;;;;;;2567857;52;21592;-86
2022/04/19 11:52:23;;;;;;;3.45;0.85;;;24.40;30.30;;;;;;2592657;52;20903;-87
2022/04/19 11:54:53;;;;;;;3.25;0.90;;;24.40;29.80;;;;;;2347101;54;22032;-88
2022/04/19 11:57:23;;;;;;;2.05;0.70;;;24.40;29.50;;;;;;2594407;53;20888;-87
2022/04/19 11:59:52;;;;;;;2.15;0.70;;;24.50;29.60;;;;;;2593902;53;21449;-85
2022/04/19 12:02:19;;;;;;;1.67;0.80;;;24.50;29.50;;;;;;2590282;53;21023;-87
2022/04/19 12:04:56;;;;;;;2.58;0.90;;;24.50;29.50;;;;;;2567561;52;20944;-87
2022/04/19 12:07:23;;;;;;;2.97;1.10;;;24.50;29.20;;;;;;2592884;53;21315;-86
2022/04/19 12:09:50;;;;;;;2.25;0.88;;;24.60;29.50;;;;;;2342857;53;20957;-86
2022/04/19 12:12:26;;;;;;;2.42;0.90;;;24.60;29.50;;;;;;2593663;52;20983;-83
2022/04/19 12:14:54;;;;;;;2.28;1.00;;;24.80;29.50;;;;;;2589875;53;21985;-84
2022/04/19 12:17:25;;;;;;;2.97;1.23;;;24.80;29.20;;;;;;2590976;53;20964;-84
2022/04/19 12:20:05;;;;;;;2.78;0.85;;;24.80;29.00;;;;;;2590844;53;21876;-84
2022/04/19 12:22:35;;;;;;;1.85;0.80;;;24.80;28.50;;;;;;2589818;53;20932;-84
2022/04/19 12:25:02;;;;;;;2.10;0.85;;;24.80;28.70;;;;;;2579815;52;20975;-84
2022/04/19 12:27:35;;;;;;;2.10;0.77;;;24.80;28.70;;;;;;2571143;52;20944;-84
2022/04/19 12:30:12;;;;;;;2.20;0.80;;;24.90;28.70;;;;;;2327564;53;21011;-84
2022/04/19 12:34:33;;;;;;;2.55;1.00;;;24.90;28.50;;;;;;2345262;54;20932;-83
2022/04/19 12:37:12;;;;;;;2.85;1.00;;;25.00;28.60;;;;;;2345448;54;20963;-84
2022/04/19 12:39:40;;;;;;;2.70;1.10;;;25.00;28.30;;;;;;2578048;52;21573;-84
2022/04/19 12:42:11;;;;;;;2.80;0.80;;;25.10;28.40;;;;;;2547174;53;20942;-85
2022/04/19 12:44:38;;;;;;;3.22;1.12;;;25.10;28.40;;;;;;2345313;54;21000;-86
2022/04/19 12:47:18;;;;;;;3.33;1.23;;;25.20;28.50;;;;;;2345382;54;21011;-85
2022/04/19 12:49:47;;;;;;;2.40;0.90;;;25.30;28.00;;;;;;2345576;54;21831;-84
2022/04/19 12:52:14;;;;;;;2.90;0.90;;;25.40;28.30;;;;;;2589602;53;20904;-84
2022/04/19 12:54:42;;;;;;;2.20;0.85;;;25.50;28.20;;;;;;2590602;53;20940;-85
2022/04/19 12:57:17;;;;;;;4.45;0.88;;;25.50;28.10;;;;;;2325759;55;20912;-84
2022/04/19 12:59:44;;;;;;;3.00;0.93;;;25.60;27.80;;;;;;2591125;53;21430;-84
2022/04/19 13:02:13;;;;;;;2.83;1.20;;;25.60;27.80;;;;;;2346018;54;20992;-85
2022/04/19 13:04:40;;;;;;;2.50;1.08;;;25.70;27.70;;;;;;2349089;54;21071;-84
2022/04/19 13:12:35;;;;;;;6.30;1.00;;;25.70;27.40;;;;;;2346102;54;20979;-84
2022/04/19 13:15:06;;;;;;;1.98;0.98;;;25.70;27.60;;;;;;2345861;54;20964;-85
2022/04/19 13:17:34;;;;;;;2.35;1.00;;;25.70;27.50;;;;;;2590598;53;21532;-84
2022/04/19 13:20:02;;;;;;;2.30;1.08;;;25.70;27.20;;;;;;2591239;53;20944;-85
2022/04/19 13:22:29;;;;;;;9.40;1.33;;;25.70;27.10;;;;;;2590750;53;21043;-84
2022/04/19 13:24:55;;;;;;;2.70;1.10;;;25.70;26.80;;;;;;2589375;53;21023;-85
2022/04/19 13:27:21;;;;;;;2.33;0.88;;;25.70;26.80;;;;;;2346524;54;20975;-84
2022/04/19 13:29:48;;;;;;;2.15;0.80;;;25.70;26.80;;;;;;2590684;53;20970;-84
2022/04/19 13:32:14;;;;;;;2.87;1.25;;;25.70;26.90;;;;;;2591078;53;20964;-85
2022/04/19 13:34:40;;;;;;;2.25;1.05;;;25.70;26.70;;;;;;2592724;53;21024;-85
2022/04/19 13:37:07;;;;;;;2.40;1.10;;;25.70;26.70;;;;;;2348259;54;20927;-84
2022/04/19 13:39:33;;;;;;;2.37;0.85;;;25.60;26.50;;;;;;2595314;53;20929;-86
2022/04/19 13:42:00;;;;;;;3.85;1.12;;;25.60;26.50;;;;;;2598947;53;20924;-84
2022/04/19 13:44:26;;;;;;;2.95;1.20;;;25.50;26.50;;;;;;2350450;54;20943;-85